sensor_id;sensor_type;location;lat;lon;timestamp;temperature;humidity
42365;DHT22;28498;54.400;18.566;2023-02-28T00:01:26;-4.70;99.90
42365;DHT22;28498;54.400;18.566;2023-02-28T00:03:54;-4.80;99.90
42365;DHT22;28498;54.400;18.566;2023-02-28T00:06:21;-4.80;99.90
42365;DHT22;28498;54.400;18.566;2023-02-28T00:08:48;-4.90;99.90
42365;DHT22;28498;54.400;18.566;2023-02-28T00:11:16;-4.90;99.90
42365;DHT22;28498;54.400;18.566;2023-02-28T00:13:45;-4.90;99.90
42365;DHT22;28498;54.400;18.566;2023-02-28T00:16:18;-4.90;99.90
42365;DHT22;28498;54.400;18.566;2023-02-28T00:18:46;-5.00;99.90
42365;DHT22;28498;54.400;18.566;2023-02-28T00:21:17;-4.90;99.90
42365;DHT22;28498;54.400;18.566;2023-02-28T00:23:45;-4.90;99.90
42365;DHT22;28498;54.400;18.566;2023-02-28T00:26:12;-4.90;99.90
42365;DHT22;28498;54.400;18.566;2023-02-28T00:28:39;-4.90;99.90
42365;DHT22;28498;54.400;18.566;2023-02-28T00:31:06;-4.90;99.90
42365;DHT22;28498;54.400;18.566;2023-02-28T00:33:33;-4.90;99.90
42365;DHT22;28498;54.400;18.566;2023-02-28T00:36:05;-4.80;99.90
42365;DHT22;28498;54.400;18.566;2023-02-28T00:38:33;-4.80;99.90
42365;DHT22;28498;54.400;18.566;2023-02-28T00:41:01;-4.80;99.90
42365;DHT22;28498;54.400;18.566;2023-02-28T00:43:33;-4.80;99.90
42365;DHT22;28498;54.400;18.566;2023-02-28T00:46:00;-4.80;99.90
42365;DHT22;28498;54.400;18.566;2023-02-28T00:48:28;-4.90;99.90
42365;DHT22;28498;54.400;18.566;2023-02-28T00:50:54;-4.90;99.90
42365;DHT22;28498;54.400;18.566;2023-02-28T00:53:21;-4.90;99.90
42365;DHT22;28498;54.400;18.566;2023-02-28T00:55:50;-5.00;99.90
42365;DHT22;28498;54.400;18.566;2023-02-28T00:58:17;-5.00;99.90
42365;DHT22;28498;54.400;18.566;2023-02-28T01:00:44;-5.00;99.90
42365;DHT22;28498;54.400;18.566;2023-02-28T01:03:17;-5.10;99.90
42365;DHT22;28498;54.400;18.566;2023-02-28T01:05:44;-5.10;99.90
42365;DHT22;28498;54.400;18.566;2023-02-28T01:08:12;-5.10;99.90
42365;DHT22;28498;54.400;18.566;2023-02-28T01:10:40;-5.00;99.90
42365;DHT22;28498;54.400;18.566;2023-02-28T01:13:07;-5.00;99.90
42365;DHT22;28498;54.400;18.566;2023-02-28T01:15:34;-4.80;99.90
42365;DHT22;28498;54.400;18.566;2023-02-28T01:18:01;-4.90;99.90
42365;DHT22;28498;54.400;18.566;2023-02-28T01:20:28;-4.90;99.90
42365;DHT22;28498;54.400;18.566;2023-02-28T01:22:55;-4.90;99.90
42365;DHT22;28498;54.400;18.566;2023-02-28T01:25:22;-4.90;99.90
42365;DHT22;28498;54.400;18.566;2023-02-28T01:27:49;-5.00;99.90
42365;DHT22;28498;54.400;18.566;2023-02-28T01:30:16;-5.00;99.90
42365;DHT22;28498;54.400;18.566;2023-02-28T01:32:43;-5.10;99.90
42365;DHT22;28498;54.400;18.566;2023-02-28T01:35:10;-5.10;99.90
42365;DHT22;28498;54.400;18.566;2023-02-28T01:37:37;-5.10;99.90
42365;DHT22;28498;54.400;18.566;2023-02-28T01:40:05;-5.10;99.90
42365;DHT22;28498;54.400;18.566;2023-02-28T01:42:32;-5.20;99.90
42365;DHT22;28498;54.400;18.566;2023-02-28T01:47:45;-5.00;99.90
42365;DHT22;28498;54.400;18.566;2023-02-28T01:50:18;-4.90;99.90
42365;DHT22;28498;54.400;18.566;2023-02-28T01:52:47;-4.80;99.90
42365;DHT22;28498;54.400;18.566;2023-02-28T01:55:18;-4.90;99.90
42365;DHT22;28498;54.400;18.566;2023-02-28T01:57:51;-5.00;99.90
42365;DHT22;28498;54.400;18.566;2023-02-28T02:00:23;-5.00;99.90
42365;DHT22;28498;54.400;18.566;2023-02-28T02:02:54;-4.90;99.90
42365;DHT22;28498;54.400;18.566;2023-02-28T02:05:24;-4.90;99.90
42365;DHT22;28498;54.400;18.566;2023-02-28T02:07:55;-4.80;99.90
42365;DHT22;28498;54.400;18.566;2023-02-28T02:10:33;-4.80;99.90
42365;DHT22;28498;54.400;18.566;2023-02-28T02:13:33;-4.80;99.90
42365;DHT22;28498;54.400;18.566;2023-02-28T02:16:34;-4.90;99.90
42365;DHT22;28498;54.400;18.566;2023-02-28T02:25:53;-5.00;99.90
42365;DHT22;28498;54.400;18.566;2023-02-28T02:37:00;-4.30;99.90
42365;DHT22;28498;54.400;18.566;2023-02-28T02:42:30;-3.80;99.90
42365;DHT22;28498;54.400;18.566;2023-02-28T02:45:03;-3.60;99.90
42365;DHT22;28498;54.400;18.566;2023-02-28T02:47:32;-3.50;99.90
42365;DHT22;28498;54.400;18.566;2023-02-28T02:50:04;-3.30;99.90
42365;DHT22;28498;54.400;18.566;2023-02-28T02:52:41;-3.20;99.90
42365;DHT22;28498;54.400;18.566;2023-02-28T02:55:11;-3.20;99.90
42365;DHT22;28498;54.400;18.566;2023-02-28T02:57:54;-3.10;99.90
42365;DHT22;28498;54.400;18.566;2023-02-28T03:00:28;-3.20;99.90
42365;DHT22;28498;54.400;18.566;2023-02-28T03:02:57;-3.20;99.90
42365;DHT22;28498;54.400;18.566;2023-02-28T03:05:28;-3.10;99.90
42365;DHT22;28498;54.400;18.566;2023-02-28T03:07:57;-3.00;99.90
42365;DHT22;28498;54.400;18.566;2023-02-28T03:24:03;-2.80;99.90
42365;DHT22;28498;54.400;18.566;2023-02-28T03:26:36;-2.70;99.90
42365;DHT22;28498;54.400;18.566;2023-02-28T03:29:23;-2.70;99.90
42365;DHT22;28498;54.400;18.566;2023-02-28T03:34:32;-2.80;99.90
42365;DHT22;28498;54.400;18.566;2023-02-28T03:37:07;-2.80;99.90
42365;DHT22;28498;54.400;18.566;2023-02-28T03:39:58;-2.70;99.90
42365;DHT22;28498;54.400;18.566;2023-02-28T03:42:29;-2.80;99.90
42365;DHT22;28498;54.400;18.566;2023-02-28T03:45:01;-2.90;99.90
42365;DHT22;28498;54.400;18.566;2023-02-28T03:47:39;-3.00;99.90
42365;DHT22;28498;54.400;18.566;2023-02-28T03:50:12;-3.00;99.90
42365;DHT22;28498;54.400;18.566;2023-02-28T03:52:45;-3.10;99.90
42365;DHT22;28498;54.400;18.566;2023-02-28T03:55:15;-3.20;99.90
42365;DHT22;28498;54.400;18.566;2023-02-28T03:57:47;-3.20;99.90
42365;DHT22;28498;54.400;18.566;2023-02-28T04:00:21;-3.20;99.90
42365;DHT22;28498;54.400;18.566;2023-02-28T04:02:54;-3.40;99.90
42365;DHT22;28498;54.400;18.566;2023-02-28T04:05:21;-3.40;99.90
42365;DHT22;28498;54.400;18.566;2023-02-28T04:07:49;-3.50;99.90
42365;DHT22;28498;54.400;18.566;2023-02-28T04:10:16;-3.50;99.90
42365;DHT22;28498;54.400;18.566;2023-02-28T04:12:43;-3.50;99.90
42365;DHT22;28498;54.400;18.566;2023-02-28T04:15:10;-3.60;99.90
42365;DHT22;28498;54.400;18.566;2023-02-28T04:17:38;-3.70;99.90
42365;DHT22;28498;54.400;18.566;2023-02-28T04:20:05;-3.70;99.90
42365;DHT22;28498;54.400;18.566;2023-02-28T04:22:36;-3.70;99.90
42365;DHT22;28498;54.400;18.566;2023-02-28T04:25:04;-3.70;99.90
42365;DHT22;28498;54.400;18.566;2023-02-28T04:27:32;-3.70;99.90
42365;DHT22;28498;54.400;18.566;2023-02-28T04:29:59;-3.60;99.90
42365;DHT22;28498;54.400;18.566;2023-02-28T04:32:26;-3.70;99.90
42365;DHT22;28498;54.400;18.566;2023-02-28T04:34:53;-3.70;99.90
42365;DHT22;28498;54.400;18.566;2023-02-28T04:37:20;-3.70;99.90
42365;DHT22;28498;54.400;18.566;2023-02-28T04:39:47;-3.60;99.90
42365;DHT22;28498;54.400;18.566;2023-02-28T04:42:15;-3.60;99.90
42365;DHT22;28498;54.400;18.566;2023-02-28T04:44:42;-3.50;99.90
42365;DHT22;28498;54.400;18.566;2023-02-28T04:47:09;-3.60;99.90
42365;DHT22;28498;54.400;18.566;2023-02-28T04:49:36;-3.60;99.90
42365;DHT22;28498;54.400;18.566;2023-02-28T04:52:03;-3.50;99.90
42365;DHT22;28498;54.400;18.566;2023-02-28T04:54:30;-3.50;99.90
42365;DHT22;28498;54.400;18.566;2023-02-28T04:56:57;-3.50;99.90
42365;DHT22;28498;54.400;18.566;2023-02-28T04:59:24;-3.50;99.90
42365;DHT22;28498;54.400;18.566;2023-02-28T05:01:51;-3.60;99.90
42365;DHT22;28498;54.400;18.566;2023-02-28T05:04:18;-3.60;99.90
42365;DHT22;28498;54.400;18.566;2023-02-28T05:06:45;-3.60;99.90
42365;DHT22;28498;54.400;18.566;2023-02-28T05:09:12;-3.60;99.90
42365;DHT22;28498;54.400;18.566;2023-02-28T05:11:40;-3.60;99.90
42365;DHT22;28498;54.400;18.566;2023-02-28T05:14:11;-3.50;99.90
42365;DHT22;28498;54.400;18.566;2023-02-28T05:16:38;-3.60;99.90
42365;DHT22;28498;54.400;18.566;2023-02-28T05:19:06;-3.60;99.90
42365;DHT22;28498;54.400;18.566;2023-02-28T05:21:41;-3.60;99.90
42365;DHT22;28498;54.400;18.566;2023-02-28T05:24:12;-3.60;99.90
42365;DHT22;28498;54.400;18.566;2023-02-28T05:26:41;-3.60;99.90
42365;DHT22;28498;54.400;18.566;2023-02-28T05:29:09;-3.50;99.90
42365;DHT22;28498;54.400;18.566;2023-02-28T05:31:36;-3.40;99.90
42365;DHT22;28498;54.400;18.566;2023-02-28T05:34:03;-3.50;99.90
42365;DHT22;28498;54.400;18.566;2023-02-28T05:36:31;-3.40;99.90
42365;DHT22;28498;54.400;18.566;2023-02-28T05:38:58;-3.30;99.90
42365;DHT22;28498;54.400;18.566;2023-02-28T05:41:25;-3.20;99.90
42365;DHT22;28498;54.400;18.566;2023-02-28T05:43:53;-3.20;99.90
42365;DHT22;28498;54.400;18.566;2023-02-28T05:46:20;-3.30;99.90
42365;DHT22;28498;54.400;18.566;2023-02-28T05:48:48;-3.20;99.90
42365;DHT22;28498;54.400;18.566;2023-02-28T05:51:16;-3.30;99.90
42365;DHT22;28498;54.400;18.566;2023-02-28T05:53:44;-3.20;99.90
42365;DHT22;28498;54.400;18.566;2023-02-28T05:56:11;-3.10;99.90
42365;DHT22;28498;54.400;18.566;2023-02-28T05:58:37;-3.10;99.90
42365;DHT22;28498;54.400;18.566;2023-02-28T06:01:24;-3.10;99.90
42365;DHT22;28498;54.400;18.566;2023-02-28T06:03:51;-3.00;99.90
42365;DHT22;28498;54.400;18.566;2023-02-28T06:06:18;-2.90;99.90
42365;DHT22;28498;54.400;18.566;2023-02-28T06:08:45;-2.90;99.90
42365;DHT22;28498;54.400;18.566;2023-02-28T06:11:13;-2.80;99.90
42365;DHT22;28498;54.400;18.566;2023-02-28T06:13:40;-2.80;99.90
42365;DHT22;28498;54.400;18.566;2023-02-28T06:16:09;-2.80;99.90
42365;DHT22;28498;54.400;18.566;2023-02-28T06:18:37;-2.80;99.90
42365;DHT22;28498;54.400;18.566;2023-02-28T06:21:04;-2.70;99.90
42365;DHT22;28498;54.400;18.566;2023-02-28T06:23:31;-2.80;99.90
42365;DHT22;28498;54.400;18.566;2023-02-28T06:25:58;-2.70;99.90
42365;DHT22;28498;54.400;18.566;2023-02-28T06:28:25;-2.70;99.90
42365;DHT22;28498;54.400;18.566;2023-02-28T06:30:52;-2.60;99.90
42365;DHT22;28498;54.400;18.566;2023-02-28T06:33:19;-2.50;99.90
42365;DHT22;28498;54.400;18.566;2023-02-28T06:35:50;-2.40;99.90
42365;DHT22;28498;54.400;18.566;2023-02-28T06:38:17;-2.30;99.90
42365;DHT22;28498;54.400;18.566;2023-02-28T06:40:45;-2.30;99.90
42365;DHT22;28498;54.400;18.566;2023-02-28T06:43:19;-2.30;99.90
42365;DHT22;28498;54.400;18.566;2023-02-28T06:45:46;-2.30;99.90
42365;DHT22;28498;54.400;18.566;2023-02-28T06:48:13;-2.20;99.90
42365;DHT22;28498;54.400;18.566;2023-02-28T06:50:40;-2.20;99.90
42365;DHT22;28498;54.400;18.566;2023-02-28T06:53:07;-2.30;99.90
42365;DHT22;28498;54.400;18.566;2023-02-28T06:55:34;-2.20;99.90
42365;DHT22;28498;54.400;18.566;2023-02-28T06:58:04;-2.20;99.90
42365;DHT22;28498;54.400;18.566;2023-02-28T07:00:42;-2.10;99.90
42365;DHT22;28498;54.400;18.566;2023-02-28T07:03:09;-2.10;99.90
42365;DHT22;28498;54.400;18.566;2023-02-28T07:05:37;-2.10;99.90
42365;DHT22;28498;54.400;18.566;2023-02-28T07:08:05;-2.10;99.90
42365;DHT22;28498;54.400;18.566;2023-02-28T07:10:33;-2.10;99.90
42365;DHT22;28498;54.400;18.566;2023-02-28T07:13:00;-2.10;99.90
42365;DHT22;28498;54.400;18.566;2023-02-28T07:15:27;-2.00;99.90
42365;DHT22;28498;54.400;18.566;2023-02-28T07:17:54;-1.90;99.90
42365;DHT22;28498;54.400;18.566;2023-02-28T07:20:23;-1.80;99.90
42365;DHT22;28498;54.400;18.566;2023-02-28T07:22:51;-1.80;99.90
42365;DHT22;28498;54.400;18.566;2023-02-28T07:25:25;-1.60;99.90
42365;DHT22;28498;54.400;18.566;2023-02-28T07:27:53;-1.50;99.90
42365;DHT22;28498;54.400;18.566;2023-02-28T07:30:20;-1.40;99.90
42365;DHT22;28498;54.400;18.566;2023-02-28T07:32:47;-1.30;99.90
42365;DHT22;28498;54.400;18.566;2023-02-28T07:35:14;-1.20;99.90
42365;DHT22;28498;54.400;18.566;2023-02-28T07:37:45;-1.10;99.90
42365;DHT22;28498;54.400;18.566;2023-02-28T07:40:14;-0.90;99.90
42365;DHT22;28498;54.400;18.566;2023-02-28T07:42:41;-0.80;99.90
42365;DHT22;28498;54.400;18.566;2023-02-28T07:45:10;-0.70;99.90
42365;DHT22;28498;54.400;18.566;2023-02-28T07:47:38;-0.60;99.90
42365;DHT22;28498;54.400;18.566;2023-02-28T07:50:07;-0.50;99.90
42365;DHT22;28498;54.400;18.566;2023-02-28T07:52:36;-0.40;99.90
42365;DHT22;28498;54.400;18.566;2023-02-28T07:55:04;-0.30;99.90
42365;DHT22;28498;54.400;18.566;2023-02-28T07:57:32;-0.20;99.90
42365;DHT22;28498;54.400;18.566;2023-02-28T08:00:07;-0.10;99.90
42365;DHT22;28498;54.400;18.566;2023-02-28T08:02:36;-0.10;99.90
42365;DHT22;28498;54.400;18.566;2023-02-28T08:05:03;0.00;99.90
42365;DHT22;28498;54.400;18.566;2023-02-28T08:07:30;-0.10;99.90
42365;DHT22;28498;54.400;18.566;2023-02-28T08:09:57;-0.10;99.90
42365;DHT22;28498;54.400;18.566;2023-02-28T08:12:25;0.00;99.90
42365;DHT22;28498;54.400;18.566;2023-02-28T08:14:52;0.00;99.90
42365;DHT22;28498;54.400;18.566;2023-02-28T08:17:19;0.00;99.90
42365;DHT22;28498;54.400;18.566;2023-02-28T08:19:46;0.20;99.90
42365;DHT22;28498;54.400;18.566;2023-02-28T08:22:13;0.20;99.90
42365;DHT22;28498;54.400;18.566;2023-02-28T08:24:41;0.30;99.90
42365;DHT22;28498;54.400;18.566;2023-02-28T08:27:09;0.30;99.90
42365;DHT22;28498;54.400;18.566;2023-02-28T08:29:37;0.50;99.90
42365;DHT22;28498;54.400;18.566;2023-02-28T08:32:06;0.40;99.90
42365;DHT22;28498;54.400;18.566;2023-02-28T08:34:43;0.50;99.90
42365;DHT22;28498;54.400;18.566;2023-02-28T08:37:12;0.60;99.90
42365;DHT22;28498;54.400;18.566;2023-02-28T08:39:39;0.60;99.90
42365;DHT22;28498;54.400;18.566;2023-02-28T08:42:06;0.50;99.90
42365;DHT22;28498;54.400;18.566;2023-02-28T08:44:34;0.60;99.90
42365;DHT22;28498;54.400;18.566;2023-02-28T08:47:01;0.60;99.90
42365;DHT22;28498;54.400;18.566;2023-02-28T08:49:28;0.70;99.90
42365;DHT22;28498;54.400;18.566;2023-02-28T08:51:55;0.80;99.90
42365;DHT22;28498;54.400;18.566;2023-02-28T08:54:24;0.90;99.90
42365;DHT22;28498;54.400;18.566;2023-02-28T08:56:51;1.00;99.90
42365;DHT22;28498;54.400;18.566;2023-02-28T08:59:18;1.10;99.90
42365;DHT22;28498;54.400;18.566;2023-02-28T09:01:45;1.20;99.90
42365;DHT22;28498;54.400;18.566;2023-02-28T09:04:12;1.30;99.90
42365;DHT22;28498;54.400;18.566;2023-02-28T09:06:45;1.60;99.90
42365;DHT22;28498;54.400;18.566;2023-02-28T09:09:12;1.60;99.90
42365;DHT22;28498;54.400;18.566;2023-02-28T09:11:39;1.80;99.90
42365;DHT22;28498;54.400;18.566;2023-02-28T09:14:06;1.80;99.90
42365;DHT22;28498;54.400;18.566;2023-02-28T09:16:34;1.80;99.90
42365;DHT22;28498;54.400;18.566;2023-02-28T09:19:01;1.90;99.90
42365;DHT22;28498;54.400;18.566;2023-02-28T09:21:28;1.80;99.90
42365;DHT22;28498;54.400;18.566;2023-02-28T09:23:56;2.00;99.90
42365;DHT22;28498;54.400;18.566;2023-02-28T09:26:25;2.00;99.90
42365;DHT22;28498;54.400;18.566;2023-02-28T09:29:00;2.10;99.90
42365;DHT22;28498;54.400;18.566;2023-02-28T09:31:29;2.20;99.90
42365;DHT22;28498;54.400;18.566;2023-02-28T09:33:57;2.30;99.90
42365;DHT22;28498;54.400;18.566;2023-02-28T09:36:25;2.40;99.90
42365;DHT22;28498;54.400;18.566;2023-02-28T09:39:07;2.40;99.90
42365;DHT22;28498;54.400;18.566;2023-02-28T09:41:39;2.60;99.90
42365;DHT22;28498;54.400;18.566;2023-02-28T09:44:31;2.70;99.90
42365;DHT22;28498;54.400;18.566;2023-02-28T09:47:39;2.70;99.90
42365;DHT22;28498;54.400;18.566;2023-02-28T09:52:54;2.80;99.90
42365;DHT22;28498;54.400;18.566;2023-02-28T09:55:39;3.00;99.90
42365;DHT22;28498;54.400;18.566;2023-02-28T09:58:40;3.00;99.90
42365;DHT22;28498;54.400;18.566;2023-02-28T10:01:25;2.90;99.90
42365;DHT22;28498;54.400;18.566;2023-02-28T10:06:36;3.00;99.90
42365;DHT22;28498;54.400;18.566;2023-02-28T10:09:19;3.00;99.90
42365;DHT22;28498;54.400;18.566;2023-02-28T10:11:56;3.00;99.90
42365;DHT22;28498;54.400;18.566;2023-02-28T10:14:25;3.10;99.90
42365;DHT22;28498;54.400;18.566;2023-02-28T10:16:59;3.10;99.90
42365;DHT22;28498;54.400;18.566;2023-02-28T10:19:55;3.00;99.90
42365;DHT22;28498;54.400;18.566;2023-02-28T10:22:37;3.00;99.90
42365;DHT22;28498;54.400;18.566;2023-02-28T10:25:27;3.20;99.90
42365;DHT22;28498;54.400;18.566;2023-02-28T10:28:15;3.40;99.90
42365;DHT22;28498;54.400;18.566;2023-02-28T10:30:44;3.40;99.90
42365;DHT22;28498;54.400;18.566;2023-02-28T10:33:22;3.40;99.90
42365;DHT22;28498;54.400;18.566;2023-02-28T10:35:51;3.40;99.90
42365;DHT22;28498;54.400;18.566;2023-02-28T10:38:27;3.50;99.90
42365;DHT22;28498;54.400;18.566;2023-02-28T10:41:08;3.50;99.90
42365;DHT22;28498;54.400;18.566;2023-02-28T10:43:37;3.50;99.90
42365;DHT22;28498;54.400;18.566;2023-02-28T10:51:08;3.50;99.90
42365;DHT22;28498;54.400;18.566;2023-02-28T10:56:27;3.70;99.90
42365;DHT22;28498;54.400;18.566;2023-02-28T11:04:02;3.90;99.90
42365;DHT22;28498;54.400;18.566;2023-02-28T11:06:31;3.90;99.90
42365;DHT22;28498;54.400;18.566;2023-02-28T11:09:15;4.00;99.90
42365;DHT22;28498;54.400;18.566;2023-02-28T11:11:46;4.00;99.90
42365;DHT22;28498;54.400;18.566;2023-02-28T11:14:25;4.00;99.90
42365;DHT22;28498;54.400;18.566;2023-02-28T11:16:54;4.20;99.90
42365;DHT22;28498;54.400;18.566;2023-02-28T11:19:34;4.30;99.90
42365;DHT22;28498;54.400;18.566;2023-02-28T11:22:05;4.30;99.90
42365;DHT22;28498;54.400;18.566;2023-02-28T11:28:04;4.20;99.90
42365;DHT22;28498;54.400;18.566;2023-02-28T11:30:41;4.00;99.90
42365;DHT22;28498;54.400;18.566;2023-02-28T11:33:38;4.10;99.90
42365;DHT22;28498;54.400;18.566;2023-02-28T11:36:16;4.10;99.90
42365;DHT22;28498;54.400;18.566;2023-02-28T11:38:48;4.10;99.90
42365;DHT22;28498;54.400;18.566;2023-02-28T11:50:33;4.20;99.70
42365;DHT22;28498;54.400;18.566;2023-02-28T11:53:22;4.20;99.90
42365;DHT22;28498;54.400;18.566;2023-02-28T11:56:02;4.20;99.90
42365;DHT22;28498;54.400;18.566;2023-02-28T12:01:28;4.30;99.90
42365;DHT22;28498;54.400;18.566;2023-02-28T12:04:24;4.40;99.90
42365;DHT22;28498;54.400;18.566;2023-02-28T12:10:27;4.40;99.90
42365;DHT22;28498;54.400;18.566;2023-02-28T12:24:07;4.30;99.90
42365;DHT22;28498;54.400;18.566;2023-02-28T12:26:39;4.40;99.90
42365;DHT22;28498;54.400;18.566;2023-02-28T12:33:01;4.40;99.90
42365;DHT22;28498;54.400;18.566;2023-02-28T12:38:23;4.40;99.90
42365;DHT22;28498;54.400;18.566;2023-02-28T12:41:26;4.50;99.90
42365;DHT22;28498;54.400;18.566;2023-02-28T12:44:03;4.40;99.90
42365;DHT22;28498;54.400;18.566;2023-02-28T12:46:35;4.40;99.90
42365;DHT22;28498;54.400;18.566;2023-02-28T12:49:13;4.50;99.90
42365;DHT22;28498;54.400;18.566;2023-02-28T12:51:44;4.60;99.90
42365;DHT22;28498;54.400;18.566;2023-02-28T12:54:38;4.60;99.90
42365;DHT22;28498;54.400;18.566;2023-02-28T12:57:12;4.50;99.90
42365;DHT22;28498;54.400;18.566;2023-02-28T12:59:45;4.40;99.90
42365;DHT22;28498;54.400;18.566;2023-02-28T13:10:20;4.60;99.90
42365;DHT22;28498;54.400;18.566;2023-02-28T13:12:52;4.70;99.90
42365;DHT22;28498;54.400;18.566;2023-02-28T13:15:26;4.70;99.90
42365;DHT22;28498;54.400;18.566;2023-02-28T13:17:56;4.70;99.90
42365;DHT22;28498;54.400;18.566;2023-02-28T13:20:34;4.70;99.90
42365;DHT22;28498;54.400;18.566;2023-02-28T13:23:03;4.70;99.90
42365;DHT22;28498;54.400;18.566;2023-02-28T13:28:13;4.80;99.90
42365;DHT22;28498;54.400;18.566;2023-02-28T13:33:32;4.80;99.60
42365;DHT22;28498;54.400;18.566;2023-02-28T13:44:09;4.70;99.90
42365;DHT22;28498;54.400;18.566;2023-02-28T13:49:32;4.70;99.90
42365;DHT22;28498;54.400;18.566;2023-02-28T13:59:56;4.60;99.90
42365;DHT22;28498;54.400;18.566;2023-02-28T14:05:31;4.50;99.90
42365;DHT22;28498;54.400;18.566;2023-02-28T14:10:45;4.60;99.90
42365;DHT22;28498;54.400;18.566;2023-02-28T14:16:01;4.40;99.90
42365;DHT22;28498;54.400;18.566;2023-02-28T14:18:34;4.50;99.90
42365;DHT22;28498;54.400;18.566;2023-02-28T14:21:13;4.50;99.90
42365;DHT22;28498;54.400;18.566;2023-02-28T14:26:59;4.40;99.90
42365;DHT22;28498;54.400;18.566;2023-02-28T14:35:18;4.30;99.90
42365;DHT22;28498;54.400;18.566;2023-02-28T14:37:47;4.20;99.90
42365;DHT22;28498;54.400;18.566;2023-02-28T14:40:19;4.20;99.90
42365;DHT22;28498;54.400;18.566;2023-02-28T14:42:57;4.10;99.90
42365;DHT22;28498;54.400;18.566;2023-02-28T14:45:25;4.20;99.90
42365;DHT22;28498;54.400;18.566;2023-02-28T14:47:53;4.10;99.90
42365;DHT22;28498;54.400;18.566;2023-02-28T14:50:31;4.20;99.90
42365;DHT22;28498;54.400;18.566;2023-02-28T14:52:59;4.20;99.90
42365;DHT22;28498;54.400;18.566;2023-02-28T14:55:34;4.10;99.90
42365;DHT22;28498;54.400;18.566;2023-02-28T14:58:04;4.20;99.90
42365;DHT22;28498;54.400;18.566;2023-02-28T15:00:35;4.20;99.90
42365;DHT22;28498;54.400;18.566;2023-02-28T15:03:21;4.20;99.90
42365;DHT22;28498;54.400;18.566;2023-02-28T15:08:20;4.10;99.90
42365;DHT22;28498;54.400;18.566;2023-02-28T15:13:23;4.10;99.90
42365;DHT22;28498;54.400;18.566;2023-02-28T15:15:54;4.00;99.90
42365;DHT22;28498;54.400;18.566;2023-02-28T15:18:49;3.90;99.90
42365;DHT22;28498;54.400;18.566;2023-02-28T15:21:36;3.90;99.90
42365;DHT22;28498;54.400;18.566;2023-02-28T15:26:42;3.70;99.90
42365;DHT22;28498;54.400;18.566;2023-02-28T15:29:16;3.50;99.90
42365;DHT22;28498;54.400;18.566;2023-02-28T15:32:03;3.50;99.90
42365;DHT22;28498;54.400;18.566;2023-02-28T15:34:43;3.40;99.90
42365;DHT22;28498;54.400;18.566;2023-02-28T15:42:42;3.10;99.90
42365;DHT22;28498;54.400;18.566;2023-02-28T15:45:37;3.00;99.90
42365;DHT22;28498;54.400;18.566;2023-02-28T15:48:14;2.90;99.90
42365;DHT22;28498;54.400;18.566;2023-02-28T15:50:43;2.60;99.90
42365;DHT22;28498;54.400;18.566;2023-02-28T15:53:16;2.70;99.90
42365;DHT22;28498;54.400;18.566;2023-02-28T15:55:44;2.50;99.90
42365;DHT22;28498;54.400;18.566;2023-02-28T15:58:12;2.40;99.90
42365;DHT22;28498;54.400;18.566;2023-02-28T16:00:43;2.30;99.90
42365;DHT22;28498;54.400;18.566;2023-02-28T16:03:47;2.50;99.90
42365;DHT22;28498;54.400;18.566;2023-02-28T16:06:41;2.40;99.90
42365;DHT22;28498;54.400;18.566;2023-02-28T16:09:12;2.30;99.90
42365;DHT22;28498;54.400;18.566;2023-02-28T16:11:48;2.20;99.90
42365;DHT22;28498;54.400;18.566;2023-02-28T16:14:24;2.20;99.90
42365;DHT22;28498;54.400;18.566;2023-02-28T16:16:56;2.10;99.90
42365;DHT22;28498;54.400;18.566;2023-02-28T16:19:23;1.90;99.90
42365;DHT22;28498;54.400;18.566;2023-02-28T16:21:50;1.90;99.90
42365;DHT22;28498;54.400;18.566;2023-02-28T16:24:17;1.80;99.90
42365;DHT22;28498;54.400;18.566;2023-02-28T16:26:48;1.80;99.90
42365;DHT22;28498;54.400;18.566;2023-02-28T16:29:34;1.70;99.90
42365;DHT22;28498;54.400;18.566;2023-02-28T16:32:05;1.50;99.90
42365;DHT22;28498;54.400;18.566;2023-02-28T16:34:32;1.40;99.90
42365;DHT22;28498;54.400;18.566;2023-02-28T16:36:59;1.40;99.90
42365;DHT22;28498;54.400;18.566;2023-02-28T16:39:26;1.30;99.90
42365;DHT22;28498;54.400;18.566;2023-02-28T16:41:53;1.20;99.90
42365;DHT22;28498;54.400;18.566;2023-02-28T16:44:32;1.10;99.90
42365;DHT22;28498;54.400;18.566;2023-02-28T16:47:00;1.00;99.90
42365;DHT22;28498;54.400;18.566;2023-02-28T16:49:28;1.00;99.90
42365;DHT22;28498;54.400;18.566;2023-02-28T16:51:55;0.90;99.90
42365;DHT22;28498;54.400;18.566;2023-02-28T16:54:22;0.90;99.90
42365;DHT22;28498;54.400;18.566;2023-02-28T16:56:49;0.80;99.90
42365;DHT22;28498;54.400;18.566;2023-02-28T16:59:21;0.70;99.90
42365;DHT22;28498;54.400;18.566;2023-02-28T17:01:49;0.60;99.90
42365;DHT22;28498;54.400;18.566;2023-02-28T17:04:16;1.00;99.90
42365;DHT22;28498;54.400;18.566;2023-02-28T17:06:43;1.00;99.90
42365;DHT22;28498;54.400;18.566;2023-02-28T17:09:19;1.40;99.90
42365;DHT22;28498;54.400;18.566;2023-02-28T17:11:50;1.30;99.90
42365;DHT22;28498;54.400;18.566;2023-02-28T17:14:17;1.60;99.90
42365;DHT22;28498;54.400;18.566;2023-02-28T17:16:44;1.70;99.90
42365;DHT22;28498;54.400;18.566;2023-02-28T17:19:13;1.70;99.90
42365;DHT22;28498;54.400;18.566;2023-02-28T17:21:41;1.70;99.90
42365;DHT22;28498;54.400;18.566;2023-02-28T17:24:18;1.80;99.90
42365;DHT22;28498;54.400;18.566;2023-02-28T17:26:59;1.80;99.90
42365;DHT22;28498;54.400;18.566;2023-02-28T17:29:27;1.70;99.90
42365;DHT22;28498;54.400;18.566;2023-02-28T17:31:54;1.70;99.90
42365;DHT22;28498;54.400;18.566;2023-02-28T17:34:26;1.60;99.90
42365;DHT22;28498;54.400;18.566;2023-02-28T17:36:53;1.70;99.90
42365;DHT22;28498;54.400;18.566;2023-02-28T17:39:20;1.70;99.90
42365;DHT22;28498;54.400;18.566;2023-02-28T17:41:54;1.50;99.90
42365;DHT22;28498;54.400;18.566;2023-02-28T17:44:22;1.50;99.90
42365;DHT22;28498;54.400;18.566;2023-02-28T17:46:51;1.50;99.90
42365;DHT22;28498;54.400;18.566;2023-02-28T17:49:18;1.50;99.90
42365;DHT22;28498;54.400;18.566;2023-02-28T17:51:46;1.80;99.90
42365;DHT22;28498;54.400;18.566;2023-02-28T17:54:13;1.70;99.90
42365;DHT22;28498;54.400;18.566;2023-02-28T17:56:41;1.60;99.90
42365;DHT22;28498;54.400;18.566;2023-02-28T17:59:10;1.60;99.90
42365;DHT22;28498;54.400;18.566;2023-02-28T18:01:38;1.40;99.90
42365;DHT22;28498;54.400;18.566;2023-02-28T18:04:05;1.30;99.90
42365;DHT22;28498;54.400;18.566;2023-02-28T18:06:37;1.50;99.90
42365;DHT22;28498;54.400;18.566;2023-02-28T18:09:14;1.40;99.90
42365;DHT22;28498;54.400;18.566;2023-02-28T18:11:41;1.20;99.90
42365;DHT22;28498;54.400;18.566;2023-02-28T18:14:10;1.30;99.90
42365;DHT22;28498;54.400;18.566;2023-02-28T18:16:37;1.20;99.90
42365;DHT22;28498;54.400;18.566;2023-02-28T18:19:05;1.40;99.90
42365;DHT22;28498;54.400;18.566;2023-02-28T18:21:32;1.50;99.90
42365;DHT22;28498;54.400;18.566;2023-02-28T18:23:59;1.40;99.90